KAZO/AZO METAR and TAF weather

Enter ICAO airport designator
Station Type Date Time Source
KAZO METAR 2020/07/11 15:53 UTC NOAA

KAZO 111553Z 33012G19KT 10SM FEW047 28/15 A2987 RMK AO2 SLP110 T02830150


Station Type Date Time Source
KAZO Decoded METAR 2020/07/11 15:53 UTC NOAA

KALAMAZOO/BATTLE CREEK AIRPORT, MI, United States (KAZO) 42-14N 085-33W 272M
Jul 11, 2020 - 11:53 AM EDT / 2020.07.11 1553 UTC
Wind: from the NNW (330 degrees) at 14 MPH (12 KT) gusting to 22 MPH (19 KT):0
Visibility: 10 mile(s):0
Sky conditions: mostly clear
Temperature: 82.9 F (28.3 C)
Dew Point: 59.0 F (15.0 C)
Relative Humidity: 44%
Pressure (altimeter): 29.87 in. Hg (1011 hPa)
ob: KAZO 111553Z 33012G19KT 10SM FEW047 28/15 A2987 RMK AO2 SLP110 T02830150
cycle: 16

Station Type Date Time Source
KAZO TAF 2020/07/11 12:42 UTC NOAA

TAF KAZO 111139Z 1112/1212 31006KT P6SM FEW050
FM111500 30011G21KT P6SM SCT050
FM120100 VRB03KT P6SM BKN050
FM120700 VRB03KT P6SM -SHRA BKN040

Example: see airport list